sensor_id;sensor_type;location;lat;lon;timestamp;pressure;altitude;pressure_sealevel;temperature;humidity
40920;BME280;26652;50.280;19.026;2022-10-16T00:02:01;98547.72;;;15.32;87.78
40920;BME280;26652;50.280;19.026;2022-10-16T00:04:43;98547.78;;;15.19;88.77
40920;BME280;26652;50.280;19.026;2022-10-16T00:06:56;98551.06;;;15.32;88.35
40920;BME280;26652;50.280;19.026;2022-10-16T00:09:08;98556.06;;;15.21;89.08
40920;BME280;26652;50.280;19.026;2022-10-16T00:11:32;98553.47;;;15.27;88.78
40920;BME280;26652;50.280;19.026;2022-10-16T00:13:57;98555.69;;;15.17;89.44
40920;BME280;26652;50.280;19.026;2022-10-16T00:16:28;98556.66;;;15.23;89.99
40920;BME280;26652;50.280;19.026;2022-10-16T00:18:34;98564.34;;;15.23;89.78
40920;BME280;26652;50.280;19.026;2022-10-16T00:20:49;98553.50;;;15.21;89.89
40920;BME280;26652;50.280;19.026;2022-10-16T00:23:01;98549.16;;;15.21;89.87
40920;BME280;26652;50.280;19.026;2022-10-16T00:25:10;98554.47;;;15.26;89.43
40920;BME280;26652;50.280;19.026;2022-10-16T00:27:16;98548.75;;;15.24;89.50
40920;BME280;26652;50.280;19.026;2022-10-16T00:29:32;98549.94;;;15.22;89.55
40920;BME280;26652;50.280;19.026;2022-10-16T00:31:51;98554.09;;;15.23;89.49
40920;BME280;26652;50.280;19.026;2022-10-16T00:34:04;98553.06;;;15.30;89.38
40920;BME280;26652;50.280;19.026;2022-10-16T00:36:17;98553.47;;;15.27;89.49
40920;BME280;26652;50.280;19.026;2022-10-16T00:38:23;98551.53;;;15.16;90.18
40920;BME280;26652;50.280;19.026;2022-10-16T00:40:36;98554.31;;;15.15;90.38
40920;BME280;26652;50.280;19.026;2022-10-16T00:42:49;98543.88;;;15.10;90.70
40920;BME280;26652;50.280;19.026;2022-10-16T00:45:00;98543.69;;;15.11;90.84
40920;BME280;26652;50.280;19.026;2022-10-16T00:47:36;98554.13;;;15.10;90.91
40920;BME280;26652;50.280;19.026;2022-10-16T00:49:43;98551.78;;;15.08;91.22
40920;BME280;26652;50.280;19.026;2022-10-16T00:51:51;98556.69;;;15.10;91.34
40920;BME280;26652;50.280;19.026;2022-10-16T00:54:09;98544.69;;;15.03;91.35
40920;BME280;26652;50.280;19.026;2022-10-16T00:56:15;98554.75;;;15.05;91.52
40920;BME280;26652;50.280;19.026;2022-10-16T00:58:21;98556.12;;;15.01;91.61
40920;BME280;26652;50.280;19.026;2022-10-16T01:00:36;98557.12;;;15.00;91.99
40920;BME280;26652;50.280;19.026;2022-10-16T01:02:42;98554.53;;;15.07;91.49
40920;BME280;26652;50.280;19.026;2022-10-16T01:04:53;98559.47;;;15.08;91.58
40920;BME280;26652;50.280;19.026;2022-10-16T01:09:35;98556.72;;;15.03;91.74
40920;BME280;26652;50.280;19.026;2022-10-16T01:12:06;98555.53;;;15.05;91.55
40920;BME280;26652;50.280;19.026;2022-10-16T01:14:27;98565.41;;;14.95;92.37
40920;BME280;26652;50.280;19.026;2022-10-16T01:17:04;98572.09;;;15.03;92.03
40920;BME280;26652;50.280;19.026;2022-10-16T01:22:08;98566.38;;;15.08;90.73
40920;BME280;26652;50.280;19.026;2022-10-16T01:27:28;98559.87;;;15.05;92.25
40920;BME280;26652;50.280;19.026;2022-10-16T01:30:10;98550.78;;;15.09;92.23
40920;BME280;26652;50.280;19.026;2022-10-16T01:35:35;98563.38;;;15.17;91.68
40920;BME280;26652;50.280;19.026;2022-10-16T01:38:34;98558.06;;;15.12;91.88
40920;BME280;26652;50.280;19.026;2022-10-16T01:40:52;98563.81;;;15.01;92.95
40920;BME280;26652;50.280;19.026;2022-10-16T01:43:29;98556.97;;;14.88;92.31
40920;BME280;26652;50.280;19.026;2022-10-16T01:45:44;98554.81;;;14.85;91.41
40920;BME280;26652;50.280;19.026;2022-10-16T01:47:55;98562.34;;;14.60;92.90
40920;BME280;26652;50.280;19.026;2022-10-16T01:50:16;98562.53;;;14.65;93.22
40920;BME280;26652;50.280;19.026;2022-10-16T01:52:41;98561.16;;;14.63;93.93
40920;BME280;26652;50.280;19.026;2022-10-16T01:55:02;98558.19;;;14.66;94.05
40920;BME280;26652;50.280;19.026;2022-10-16T01:57:38;98558.25;;;14.53;94.91
40920;BME280;26652;50.280;19.026;2022-10-16T01:59:52;98557.06;;;14.55;94.83
40920;BME280;26652;50.280;19.026;2022-10-16T02:02:19;98561.97;;;14.37;94.94
40920;BME280;26652;50.280;19.026;2022-10-16T02:04:59;98563.94;;;14.35;95.17
40920;BME280;26652;50.280;19.026;2022-10-16T02:07:11;98561.37;;;14.15;96.27
40920;BME280;26652;50.280;19.026;2022-10-16T02:09:20;98562.56;;;14.13;96.95
40920;BME280;26652;50.280;19.026;2022-10-16T02:11:42;98573.00;;;14.11;96.03
40920;BME280;26652;50.280;19.026;2022-10-16T02:14:05;98573.19;;;14.03;96.82
40920;BME280;26652;50.280;19.026;2022-10-16T02:16:41;98578.72;;;14.06;96.50
40920;BME280;26652;50.280;19.026;2022-10-16T02:18:53;98586.38;;;13.93;97.57
40920;BME280;26652;50.280;19.026;2022-10-16T02:21:33;98582.44;;;13.97;97.36
40920;BME280;26652;50.280;19.026;2022-10-16T02:24:04;98591.50;;;14.13;97.26
40920;BME280;26652;50.280;19.026;2022-10-16T02:29:12;98591.72;;;14.25;96.23
40920;BME280;26652;50.280;19.026;2022-10-16T02:31:48;98581.06;;;14.08;97.06
40920;BME280;26652;50.280;19.026;2022-10-16T02:34:01;98588.16;;;14.13;97.91
40920;BME280;26652;50.280;19.026;2022-10-16T02:36:12;98590.13;;;14.17;97.39
40920;BME280;26652;50.280;19.026;2022-10-16T02:38:33;98585.00;;;14.17;97.25
40920;BME280;26652;50.280;19.026;2022-10-16T02:40:53;98583.25;;;14.11;97.26
40920;BME280;26652;50.280;19.026;2022-10-16T02:43:18;98583.44;;;14.16;97.07
40920;BME280;26652;50.280;19.026;2022-10-16T02:45:47;98582.06;;;14.00;95.60
40920;BME280;26652;50.280;19.026;2022-10-16T02:48:03;98581.25;;;13.87;95.19
40920;BME280;26652;50.280;19.026;2022-10-16T02:50:15;98584.16;;;13.70;95.82
40920;BME280;26652;50.280;19.026;2022-10-16T02:52:48;98580.78;;;13.57;95.70
40920;BME280;26652;50.280;19.026;2022-10-16T02:55:00;98578.22;;;13.50;96.90
40920;BME280;26652;50.280;19.026;2022-10-16T02:57:18;98589.03;;;13.59;96.29
40920;BME280;26652;50.280;19.026;2022-10-16T02:59:53;98587.31;;;13.72;96.87
40920;BME280;26652;50.280;19.026;2022-10-16T03:02:05;98582.91;;;13.40;95.96
40920;BME280;26652;50.280;19.026;2022-10-16T03:04:14;98589.97;;;13.31;96.83
40920;BME280;26652;50.280;19.026;2022-10-16T03:06:36;98590.72;;;13.25;96.68
40920;BME280;26652;50.280;19.026;2022-10-16T03:08:59;98594.06;;;13.26;97.70
40920;BME280;26652;50.280;19.026;2022-10-16T03:11:21;98593.53;;;13.37;96.52
40920;BME280;26652;50.280;19.026;2022-10-16T03:13:59;98596.47;;;13.34;96.09
40920;BME280;26652;50.280;19.026;2022-10-16T03:16:23;98595.81;;;13.19;97.26
40920;BME280;26652;50.280;19.026;2022-10-16T03:18:51;98608.28;;;13.41;97.30
40920;BME280;26652;50.280;19.026;2022-10-16T03:21:19;98603.50;;;13.25;97.25
40920;BME280;26652;50.280;19.026;2022-10-16T03:23:46;98602.72;;;13.25;96.82
40920;BME280;26652;50.280;19.026;2022-10-16T03:26:24;98605.13;;;13.39;98.89
40920;BME280;26652;50.280;19.026;2022-10-16T03:28:40;98600.03;;;13.53;98.97
40920;BME280;26652;50.280;19.026;2022-10-16T03:30:56;98599.06;;;13.54;99.52
40920;BME280;26652;50.280;19.026;2022-10-16T03:33:40;98595.31;;;13.43;100.00
40920;BME280;26652;50.280;19.026;2022-10-16T03:35:54;98598.50;;;13.52;100.00
40920;BME280;26652;50.280;19.026;2022-10-16T03:38:03;98610.28;;;13.59;100.00
40920;BME280;26652;50.280;19.026;2022-10-16T03:40:32;98610.88;;;13.61;99.49
40920;BME280;26652;50.280;19.026;2022-10-16T03:43:01;98608.09;;;13.43;99.65
40920;BME280;26652;50.280;19.026;2022-10-16T03:45:33;98612.56;;;13.28;97.64
40920;BME280;26652;50.280;19.026;2022-10-16T03:47:49;98620.69;;;13.10;97.94
40920;BME280;26652;50.280;19.026;2022-10-16T03:49:58;98625.09;;;13.16;98.01
40920;BME280;26652;50.280;19.026;2022-10-16T03:52:31;98622.25;;;13.04;98.10
40920;BME280;26652;50.280;19.026;2022-10-16T03:54:44;98625.59;;;13.05;96.85
40920;BME280;26652;50.280;19.026;2022-10-16T03:56:56;98624.47;;;13.14;97.18
40920;BME280;26652;50.280;19.026;2022-10-16T03:59:18;98621.44;;;13.04;98.31
40920;BME280;26652;50.280;19.026;2022-10-16T04:01:50;98621.81;;;13.01;98.24
40920;BME280;26652;50.280;19.026;2022-10-16T04:04:11;98616.69;;;12.94;97.39
40920;BME280;26652;50.280;19.026;2022-10-16T04:06:34;98618.94;;;13.10;98.23
40920;BME280;26652;50.280;19.026;2022-10-16T04:09:02;98611.50;;;13.16;97.86
40920;BME280;26652;50.280;19.026;2022-10-16T04:11:44;98625.88;;;13.17;97.53
40920;BME280;26652;50.280;19.026;2022-10-16T04:13:57;98622.69;;;13.15;97.24
40920;BME280;26652;50.280;19.026;2022-10-16T04:16:38;98620.22;;;13.28;97.91
40920;BME280;26652;50.280;19.026;2022-10-16T04:18:51;98622.03;;;13.34;98.49
40920;BME280;26652;50.280;19.026;2022-10-16T04:21:28;98628.91;;;13.33;97.53
40920;BME280;26652;50.280;19.026;2022-10-16T04:23:50;98628.56;;;13.43;96.45
40920;BME280;26652;50.280;19.026;2022-10-16T04:26:27;98626.19;;;13.41;97.52
40920;BME280;26652;50.280;19.026;2022-10-16T04:28:40;98629.34;;;13.44;98.87
40920;BME280;26652;50.280;19.026;2022-10-16T04:30:57;98629.34;;;13.44;98.95
40920;BME280;26652;50.280;19.026;2022-10-16T04:33:33;98636.19;;;13.36;97.38
40920;BME280;26652;50.280;19.026;2022-10-16T04:35:58;98626.91;;;13.29;97.78
40920;BME280;26652;50.280;19.026;2022-10-16T04:38:18;98613.56;;;13.33;100.00
40920;BME280;26652;50.280;19.026;2022-10-16T04:40:44;98620.69;;;13.45;100.00
40920;BME280;26652;50.280;19.026;2022-10-16T04:43:13;98620.50;;;13.53;100.00
40920;BME280;26652;50.280;19.026;2022-10-16T04:45:44;98628.41;;;13.64;100.00
40920;BME280;26652;50.280;19.026;2022-10-16T04:48:13;98625.22;;;13.56;99.95
40920;BME280;26652;50.280;19.026;2022-10-16T04:50:46;98626.38;;;13.40;99.89
40920;BME280;26652;50.280;19.026;2022-10-16T04:53:15;98634.88;;;13.54;99.52
40920;BME280;26652;50.280;19.026;2022-10-16T04:55:54;98627.78;;;13.56;98.99
40920;BME280;26652;50.280;19.026;2022-10-16T04:58:31;98628.19;;;13.59;98.74
40920;BME280;26652;50.280;19.026;2022-10-16T05:00:49;98631.75;;;13.52;99.90
40920;BME280;26652;50.280;19.026;2022-10-16T05:03:22;98632.72;;;13.57;100.00
40920;BME280;26652;50.280;19.026;2022-10-16T05:05:45;98633.91;;;13.61;100.00
40920;BME280;26652;50.280;19.026;2022-10-16T05:08:16;98643.94;;;13.56;100.00
40920;BME280;26652;50.280;19.026;2022-10-16T05:10:28;98633.28;;;13.46;100.00
40920;BME280;26652;50.280;19.026;2022-10-16T05:12:40;98632.31;;;13.47;100.00
40920;BME280;26652;50.280;19.026;2022-10-16T05:15:02;98644.94;;;13.62;100.00
40920;BME280;26652;50.280;19.026;2022-10-16T05:17:31;98648.69;;;13.66;100.00
40920;BME280;26652;50.280;19.026;2022-10-16T05:19:43;98656.00;;;13.75;98.85
40920;BME280;26652;50.280;19.026;2022-10-16T05:21:55;98658.53;;;13.69;97.49
40920;BME280;26652;50.280;19.026;2022-10-16T05:24:18;98666.75;;;13.58;97.37
40920;BME280;26652;50.280;19.026;2022-10-16T05:26:57;98673.47;;;13.65;96.99
40920;BME280;26652;50.280;19.026;2022-10-16T05:29:21;98670.28;;;13.57;96.17
40920;BME280;26652;50.280;19.026;2022-10-16T05:31:44;98668.72;;;13.56;97.15
40920;BME280;26652;50.280;19.026;2022-10-16T05:34:12;98673.22;;;13.54;97.27
40920;BME280;26652;50.280;19.026;2022-10-16T05:36:43;98671.47;;;13.54;97.78
40920;BME280;26652;50.280;19.026;2022-10-16T05:39:06;98683.72;;;13.72;96.95
40920;BME280;26652;50.280;19.026;2022-10-16T05:41:38;98676.66;;;13.74;96.48
40920;BME280;26652;50.280;19.026;2022-10-16T05:44:03;98680.44;;;13.85;95.60
40920;BME280;26652;50.280;19.026;2022-10-16T05:46:33;98679.47;;;13.86;96.05
40920;BME280;26652;50.280;19.026;2022-10-16T05:48:45;98677.88;;;13.85;98.00
40920;BME280;26652;50.280;19.026;2022-10-16T05:51:06;98684.00;;;13.90;98.24
40920;BME280;26652;50.280;19.026;2022-10-16T05:53:27;98692.50;;;14.04;97.89
40920;BME280;26652;50.280;19.026;2022-10-16T05:55:52;98676.34;;;13.97;97.36
40920;BME280;26652;50.280;19.026;2022-10-16T05:58:12;98686.19;;;14.00;97.92
40920;BME280;26652;50.280;19.026;2022-10-16T06:00:52;98694.47;;;14.02;98.19
40920;BME280;26652;50.280;19.026;2022-10-16T06:03:11;98696.28;;;14.15;97.91
40920;BME280;26652;50.280;19.026;2022-10-16T06:05:37;98708.47;;;14.13;97.30
40920;BME280;26652;50.280;19.026;2022-10-16T06:08:00;98706.03;;;13.91;98.41
40920;BME280;26652;50.280;19.026;2022-10-16T06:10:27;98716.53;;;14.03;96.16
40920;BME280;26652;50.280;19.026;2022-10-16T06:13:00;98713.81;;;14.18;96.47
40920;BME280;26652;50.280;19.026;2022-10-16T06:15:16;98723.75;;;13.86;98.84
40920;BME280;26652;50.280;19.026;2022-10-16T06:17:39;98708.50;;;13.65;100.00
40920;BME280;26652;50.280;19.026;2022-10-16T06:20:21;98731.78;;;13.77;100.00
40920;BME280;26652;50.280;19.026;2022-10-16T06:22:38;98735.69;;;13.72;100.00
40920;BME280;26652;50.280;19.026;2022-10-16T06:25:21;98736.44;;;13.66;100.00
40920;BME280;26652;50.280;19.026;2022-10-16T06:27:40;98740.91;;;13.99;100.00
40920;BME280;26652;50.280;19.026;2022-10-16T06:30:12;98739.59;;;14.10;99.68
40920;BME280;26652;50.280;19.026;2022-10-16T06:32:28;98744.53;;;14.18;99.50
40920;BME280;26652;50.280;19.026;2022-10-16T06:35:01;98742.00;;;14.31;99.54
40920;BME280;26652;50.280;19.026;2022-10-16T06:37:28;98735.19;;;14.51;97.78
40920;BME280;26652;50.280;19.026;2022-10-16T06:39:50;98753.50;;;14.75;96.97
40920;BME280;26652;50.280;19.026;2022-10-16T06:42:11;98751.56;;;14.90;96.13
40920;BME280;26652;50.280;19.026;2022-10-16T06:44:19;98756.09;;;15.01;94.61
40920;BME280;26652;50.280;19.026;2022-10-16T06:46:33;98753.13;;;15.11;92.36
40920;BME280;26652;50.280;19.026;2022-10-16T06:48:47;98770.09;;;15.25;90.64
40920;BME280;26652;50.280;19.026;2022-10-16T06:51:08;98757.84;;;15.33;89.39
40920;BME280;26652;50.280;19.026;2022-10-16T06:53:14;98762.16;;;15.46;88.91
40920;BME280;26652;50.280;19.026;2022-10-16T06:55:28;98760.97;;;15.55;86.86
40920;BME280;26652;50.280;19.026;2022-10-16T06:57:47;98755.03;;;15.55;85.48
40920;BME280;26652;50.280;19.026;2022-10-16T06:59:52;98765.94;;;15.57;85.42
40920;BME280;26652;50.280;19.026;2022-10-16T07:02:04;98769.25;;;15.64;84.98
40920;BME280;26652;50.280;19.026;2022-10-16T07:04:10;98764.69;;;15.66;84.11
40920;BME280;26652;50.280;19.026;2022-10-16T07:06:26;98769.38;;;15.82;84.02
40920;BME280;26652;50.280;19.026;2022-10-16T07:08:39;98771.50;;;15.98;82.86
40920;BME280;26652;50.280;19.026;2022-10-16T07:10:44;98776.38;;;16.13;81.82
40920;BME280;26652;50.280;19.026;2022-10-16T07:12:53;98784.19;;;16.31;81.37
40920;BME280;26652;50.280;19.026;2022-10-16T07:15:07;98776.06;;;16.41;80.70
40920;BME280;26652;50.280;19.026;2022-10-16T07:17:15;98775.63;;;16.44;79.62
40920;BME280;26652;50.280;19.026;2022-10-16T07:19:27;98768.25;;;16.54;79.36
40920;BME280;26652;50.280;19.026;2022-10-16T07:21:46;98777.09;;;16.65;78.91
40920;BME280;26652;50.280;19.026;2022-10-16T07:23:58;98781.50;;;16.58;78.11
40920;BME280;26652;50.280;19.026;2022-10-16T07:26:04;98778.53;;;16.54;78.61
40920;BME280;26652;50.280;19.026;2022-10-16T07:28:15;98780.28;;;16.60;78.45
40920;BME280;26652;50.280;19.026;2022-10-16T07:30:29;98774.53;;;16.65;78.48
40920;BME280;26652;50.280;19.026;2022-10-16T07:32:37;98780.78;;;16.76;77.52
40920;BME280;26652;50.280;19.026;2022-10-16T07:35:03;98782.56;;;16.75;78.40
40920;BME280;26652;50.280;19.026;2022-10-16T07:37:10;98790.03;;;16.83;77.05
40920;BME280;26652;50.280;19.026;2022-10-16T07:39:22;98783.78;;;16.97;77.06
40920;BME280;26652;50.280;19.026;2022-10-16T07:41:35;98790.47;;;17.05;75.28
40920;BME280;26652;50.280;19.026;2022-10-16T07:43:52;98788.25;;;17.09;75.62
40920;BME280;26652;50.280;19.026;2022-10-16T07:46:01;98787.38;;;17.21;75.43
40920;BME280;26652;50.280;19.026;2022-10-16T07:48:33;98794.34;;;17.39;75.18
40920;BME280;26652;50.280;19.026;2022-10-16T07:51:04;98791.81;;;17.32;74.96
40920;BME280;26652;50.280;19.026;2022-10-16T07:53:15;98797.69;;;17.40;74.49
40920;BME280;26652;50.280;19.026;2022-10-16T07:55:44;98788.34;;;17.45;74.33
40920;BME280;26652;50.280;19.026;2022-10-16T07:58:20;98801.91;;;17.34;73.54
40920;BME280;26652;50.280;19.026;2022-10-16T08:00:32;98797.44;;;17.23;73.46
40920;BME280;26652;50.280;19.026;2022-10-16T08:02:40;98805.75;;;17.25;73.55
40920;BME280;26652;50.280;19.026;2022-10-16T08:05:02;98799.81;;;17.24;74.35
40920;BME280;26652;50.280;19.026;2022-10-16T08:07:23;98815.59;;;17.28;74.02
40920;BME280;26652;50.280;19.026;2022-10-16T08:09:49;98812.19;;;17.34;73.86
40920;BME280;26652;50.280;19.026;2022-10-16T08:12:23;98818.06;;;17.41;72.74
40920;BME280;26652;50.280;19.026;2022-10-16T08:14:35;98815.66;;;17.46;72.36
40920;BME280;26652;50.280;19.026;2022-10-16T08:16:58;98815.59;;;17.53;71.83
40920;BME280;26652;50.280;19.026;2022-10-16T08:19:23;98806.59;;;17.62;71.68
40920;BME280;26652;50.280;19.026;2022-10-16T08:21:50;98809.47;;;17.72;71.55
40920;BME280;26652;50.280;19.026;2022-10-16T08:24:27;98804.09;;;17.92;71.52
40920;BME280;26652;50.280;19.026;2022-10-16T08:26:53;98811.63;;;17.93;70.25
40920;BME280;26652;50.280;19.026;2022-10-16T08:29:21;98800.81;;;17.85;70.58
40920;BME280;26652;50.280;19.026;2022-10-16T08:31:37;98811.75;;;17.98;69.90
40920;BME280;26652;50.280;19.026;2022-10-16T08:33:50;98819.91;;;18.14;69.18
40920;BME280;26652;50.280;19.026;2022-10-16T08:36:25;98817.16;;;18.27;68.37
40920;BME280;26652;50.280;19.026;2022-10-16T08:38:38;98813.41;;;18.41;67.43
40920;BME280;26652;50.280;19.026;2022-10-16T08:40:47;98819.69;;;18.64;66.92
40920;BME280;26652;50.280;19.026;2022-10-16T08:48:47;98830.44;;;19.02;65.47
40920;BME280;26652;50.280;19.026;2022-10-16T08:51:07;98838.16;;;19.02;65.62
40920;BME280;26652;50.280;19.026;2022-10-16T08:53:41;98822.47;;;19.04;65.50
40920;BME280;26652;50.280;19.026;2022-10-16T08:55:54;98839.19;;;19.01;65.01
40920;BME280;26652;50.280;19.026;2022-10-16T08:58:22;98831.44;;;19.01;65.35
40920;BME280;26652;50.280;19.026;2022-10-16T09:00:46;98841.03;;;18.82;65.78
40920;BME280;26652;50.280;19.026;2022-10-16T09:03:40;98835.69;;;18.95;66.22
40920;BME280;26652;50.280;19.026;2022-10-16T09:06:21;98842.19;;;18.98;66.01
40920;BME280;26652;50.280;19.026;2022-10-16T09:11:57;98839.75;;;19.03;65.68
40920;BME280;26652;50.280;19.026;2022-10-16T09:16:56;98832.56;;;19.17;64.86
40920;BME280;26652;50.280;19.026;2022-10-16T09:20:04;98837.19;;;19.38;65.39
40920;BME280;26652;50.280;19.026;2022-10-16T09:22:38;98840.69;;;19.44;64.26
40920;BME280;26652;50.280;19.026;2022-10-16T09:24:49;98842.03;;;19.35;64.48
40920;BME280;26652;50.280;19.026;2022-10-16T09:27:21;98845.16;;;19.37;63.14
40920;BME280;26652;50.280;19.026;2022-10-16T09:29:37;98854.94;;;19.46;64.14
40920;BME280;26652;50.280;19.026;2022-10-16T09:32:19;98851.28;;;19.54;63.92
40920;BME280;26652;50.280;19.026;2022-10-16T09:34:55;98859.91;;;19.59;63.39
40920;BME280;26652;50.280;19.026;2022-10-16T09:37:14;98860.22;;;19.40;64.27
40920;BME280;26652;50.280;19.026;2022-10-16T09:40:05;98863.13;;;19.43;64.03
40920;BME280;26652;50.280;19.026;2022-10-16T09:42:35;98862.84;;;19.51;64.07
40920;BME280;26652;50.280;19.026;2022-10-16T09:45:21;98861.59;;;19.66;64.24
40920;BME280;26652;50.280;19.026;2022-10-16T09:47:40;98856.88;;;19.74;63.71
40920;BME280;26652;50.280;19.026;2022-10-16T09:50:24;98856.50;;;19.82;63.51
40920;BME280;26652;50.280;19.026;2022-10-16T09:52:51;98867.00;;;19.76;63.39
40920;BME280;26652;50.280;19.026;2022-10-16T09:55:28;98867.28;;;19.79;64.07
40920;BME280;26652;50.280;19.026;2022-10-16T09:58:11;98867.84;;;19.93;63.57
40920;BME280;26652;50.280;19.026;2022-10-16T10:00:25;98870.84;;;20.13;62.96
40920;BME280;26652;50.280;19.026;2022-10-16T10:02:58;98871.53;;;20.09;63.07
40920;BME280;26652;50.280;19.026;2022-10-16T10:05:35;98861.03;;;20.27;63.06
40920;BME280;26652;50.280;19.026;2022-10-16T10:08:02;98863.03;;;20.37;63.20
40920;BME280;26652;50.280;19.026;2022-10-16T10:10:41;98864.31;;;20.63;62.46
40920;BME280;26652;50.280;19.026;2022-10-16T10:13:01;98864.87;;;20.65;61.52
40920;BME280;26652;50.280;19.026;2022-10-16T10:15:24;98865.44;;;20.67;61.71
40920;BME280;26652;50.280;19.026;2022-10-16T10:17:54;98869.94;;;20.60;61.61
40920;BME280;26652;50.280;19.026;2022-10-16T10:20:34;98869.25;;;20.64;62.31
40920;BME280;26652;50.280;19.026;2022-10-16T10:22:57;98869.81;;;20.83;61.22
40920;BME280;26652;50.280;19.026;2022-10-16T10:25:48;98866.37;;;20.94;61.64
40920;BME280;26652;50.280;19.026;2022-10-16T10:34:04;98873.50;;;20.70;61.56
40920;BME280;26652;50.280;19.026;2022-10-16T10:36:36;98873.09;;;20.62;61.19
40920;BME280;26652;50.280;19.026;2022-10-16T10:39:09;98879.16;;;20.67;61.50
40920;BME280;26652;50.280;19.026;2022-10-16T10:42:03;98879.63;;;20.81;61.69
40920;BME280;26652;50.280;19.026;2022-10-16T10:47:12;98874.09;;;20.61;61.27
40920;BME280;26652;50.280;19.026;2022-10-16T11:01:10;98854.72;;;20.46;63.13
40920;BME280;26652;50.280;19.026;2022-10-16T11:03:50;98860.66;;;20.47;63.93
40920;BME280;26652;50.280;19.026;2022-10-16T11:06:36;98853.28;;;20.39;63.04
40920;BME280;26652;50.280;19.026;2022-10-16T11:12:06;98859.88;;;20.46;63.97
40920;BME280;26652;50.280;19.026;2022-10-16T11:15:00;98854.91;;;20.56;63.73
40920;BME280;26652;50.280;19.026;2022-10-16T11:17:40;98863.66;;;20.55;62.87
40920;BME280;26652;50.280;19.026;2022-10-16T11:20:00;98860.56;;;20.42;63.78
40920;BME280;26652;50.280;19.026;2022-10-16T11:22:47;98860.75;;;20.52;63.47
40920;BME280;26652;50.280;19.026;2022-10-16T11:27:41;98868.41;;;20.47;63.57
40920;BME280;26652;50.280;19.026;2022-10-16T11:30:20;98867.88;;;20.45;63.87
40920;BME280;26652;50.280;19.026;2022-10-16T11:35:38;98866.44;;;20.66;64.14
40920;BME280;26652;50.280;19.026;2022-10-16T11:38:03;98863.16;;;20.87;63.77
40920;BME280;26652;50.280;19.026;2022-10-16T11:40:32;98862.12;;;20.88;63.65
40920;BME280;26652;50.280;19.026;2022-10-16T11:43:02;98867.50;;;20.98;63.42
40920;BME280;26652;50.280;19.026;2022-10-16T11:45:37;98864.44;;;21.01;62.84
40920;BME280;26652;50.280;19.026;2022-10-16T11:48:27;98868.91;;;21.06;63.69
40920;BME280;26652;50.280;19.026;2022-10-16T11:50:50;98860.28;;;21.17;62.49
40920;BME280;26652;50.280;19.026;2022-10-16T11:55:37;98854.97;;;21.24;62.48
40920;BME280;26652;50.280;19.026;2022-10-16T11:58:01;98860.16;;;21.24;62.65
40920;BME280;26652;50.280;19.026;2022-10-16T12:08:11;98864.69;;;21.67;60.61
40920;BME280;26652;50.280;19.026;2022-10-16T12:10:24;98871.38;;;21.63;60.29
40920;BME280;26652;50.280;19.026;2022-10-16T12:12:40;98871.13;;;21.64;60.47
40920;BME280;26652;50.280;19.026;2022-10-16T12:14:59;98879.75;;;21.70;60.97
40920;BME280;26652;50.280;19.026;2022-10-16T12:17:34;98870.97;;;21.71;60.10
40920;BME280;26652;50.280;19.026;2022-10-16T12:19:40;98880.84;;;21.74;60.44
40920;BME280;26652;50.280;19.026;2022-10-16T12:21:57;98869.56;;;21.63;60.08
40920;BME280;26652;50.280;19.026;2022-10-16T12:24:42;98890.69;;;21.55;60.42
40920;BME280;26652;50.280;19.026;2022-10-16T12:26:45;98886.53;;;21.37;60.25
40920;BME280;26652;50.280;19.026;2022-10-16T12:29:12;98882.84;;;21.33;61.09
40920;BME280;26652;50.280;19.026;2022-10-16T12:31:22;98891.56;;;21.44;60.84
40920;BME280;26652;50.280;19.026;2022-10-16T12:33:31;98889.03;;;21.87;61.40
40920;BME280;26652;50.280;19.026;2022-10-16T12:35:44;98890.28;;;22.02;60.75
40920;BME280;26652;50.280;19.026;2022-10-16T12:38:05;98889.56;;;22.06;60.88
40920;BME280;26652;50.280;19.026;2022-10-16T12:40:34;98886.50;;;22.09;60.56
40920;BME280;26652;50.280;19.026;2022-10-16T12:42:57;98890.72;;;22.15;60.11
40920;BME280;26652;50.280;19.026;2022-10-16T12:45:35;98895.06;;;21.93;60.38
40920;BME280;26652;50.280;19.026;2022-10-16T12:47:53;98887.13;;;21.78;61.35
40920;BME280;26652;50.280;19.026;2022-10-16T12:49:58;98891.28;;;21.79;61.40
40920;BME280;26652;50.280;19.026;2022-10-16T12:52:22;98891.16;;;21.69;62.11
40920;BME280;26652;50.280;19.026;2022-10-16T12:54:36;98896.97;;;21.59;62.47
40920;BME280;26652;50.280;19.026;2022-10-16T12:57:17;98896.87;;;21.54;62.36
40920;BME280;26652;50.280;19.026;2022-10-16T13:05:09;98902.87;;;21.09;64.12
40920;BME280;26652;50.280;19.026;2022-10-16T13:10:06;98899.25;;;20.94;65.30
40920;BME280;26652;50.280;19.026;2022-10-16T13:13:09;98901.38;;;20.80;66.31
40920;BME280;26652;50.280;19.026;2022-10-16T13:15:23;98898.84;;;20.85;66.15
40920;BME280;26652;50.280;19.026;2022-10-16T13:28:01;98899.69;;;20.74;67.09
40920;BME280;26652;50.280;19.026;2022-10-16T13:30:31;98908.25;;;20.91;66.16
40920;BME280;26652;50.280;19.026;2022-10-16T13:33:05;98899.44;;;21.04;66.04
40920;BME280;26652;50.280;19.026;2022-10-16T13:35:28;98904.59;;;21.04;65.52
40920;BME280;26652;50.280;19.026;2022-10-16T13:37:48;98900.66;;;20.84;65.78
40920;BME280;26652;50.280;19.026;2022-10-16T13:40:22;98899.78;;;20.79;66.55
40920;BME280;26652;50.280;19.026;2022-10-16T13:42:39;98895.41;;;20.79;66.08
40920;BME280;26652;50.280;19.026;2022-10-16T13:44:59;98896.47;;;20.67;66.19
40920;BME280;26652;50.280;19.026;2022-10-16T13:47:41;98903.44;;;20.66;66.32
40920;BME280;26652;50.280;19.026;2022-10-16T13:50:12;98899.84;;;20.84;66.29
40920;BME280;26652;50.280;19.026;2022-10-16T13:52:33;98890.56;;;21.00;65.81
40920;BME280;26652;50.280;19.026;2022-10-16T13:55:16;98885.50;;;21.21;65.86